sensor_id;sensor_type;location;lat;lon;timestamp;pressure;altitude;pressure_sealevel;temperature;humidity
84795;BME280;75026;49.184;16.564;2024-01-06T00:02:44;97595.88;;;21.04;56.68
84795;BME280;75026;49.184;16.564;2024-01-06T00:05:45;97594.78;;;21.02;56.67
84795;BME280;75026;49.184;16.564;2024-01-06T00:08:47;97601.63;;;21.01;56.65
84795;BME280;75026;49.184;16.564;2024-01-06T00:11:51;97596.53;;;20.99;56.76
84795;BME280;75026;49.184;16.564;2024-01-06T00:14:52;97583.78;;;20.98;56.83
84795;BME280;75026;49.184;16.564;2024-01-06T00:17:53;97579.91;;;20.96;56.91
84795;BME280;75026;49.184;16.564;2024-01-06T00:20:54;97571.03;;;20.97;57.00
84795;BME280;75026;49.184;16.564;2024-01-06T00:23:54;97569.00;;;20.98;56.91
84795;BME280;75026;49.184;16.564;2024-01-06T00:26:56;97567.47;;;20.97;57.03
84795;BME280;75026;49.184;16.564;2024-01-06T00:29:57;97562.66;;;20.97;57.01
84795;BME280;75026;49.184;16.564;2024-01-06T00:32:58;97560.03;;;20.94;57.19
84795;BME280;75026;49.184;16.564;2024-01-06T00:35:58;97556.63;;;20.90;57.24
84795;BME280;75026;49.184;16.564;2024-01-06T00:38:59;97558.66;;;20.89;57.22
84795;BME280;75026;49.184;16.564;2024-01-06T00:42:00;97559.59;;;20.86;57.25
84795;BME280;75026;49.184;16.564;2024-01-06T00:45:01;97560.53;;;20.83;57.50
84795;BME280;75026;49.184;16.564;2024-01-06T00:48:02;97573.47;;;20.80;57.50
84795;BME280;75026;49.184;16.564;2024-01-06T00:51:03;97568.81;;;20.77;57.58
84795;BME280;75026;49.184;16.564;2024-01-06T00:54:03;97558.59;;;20.74;57.77
84795;BME280;75026;49.184;16.564;2024-01-06T00:57:04;97558.59;;;20.74;57.65
84795;BME280;75026;49.184;16.564;2024-01-06T01:00:05;97569.44;;;20.72;57.64
84795;BME280;75026;49.184;16.564;2024-01-06T01:03:06;97578.31;;;20.71;57.50
84795;BME280;75026;49.184;16.564;2024-01-06T01:06:07;97587.47;;;20.71;57.72
84795;BME280;75026;49.184;16.564;2024-01-06T01:09:08;97586.88;;;20.67;57.73
84795;BME280;75026;49.184;16.564;2024-01-06T01:12:10;97591.69;;;20.67;57.76
84795;BME280;75026;49.184;16.564;2024-01-06T01:15:11;97595.88;;;20.71;57.68
84795;BME280;75026;49.184;16.564;2024-01-06T01:18:12;97582.22;;;20.64;57.72
84795;BME280;75026;49.184;16.564;2024-01-06T01:21:14;97581.00;;;20.65;57.86
84795;BME280;75026;49.184;16.564;2024-01-06T01:24:15;97577.41;;;20.65;57.80
84795;BME280;75026;49.184;16.564;2024-01-06T01:27:16;97583.97;;;20.62;57.90
84795;BME280;75026;49.184;16.564;2024-01-06T01:30:16;97584.75;;;20.62;57.91
84795;BME280;75026;49.184;16.564;2024-01-06T01:33:17;97578.06;;;20.60;57.97
84795;BME280;75026;49.184;16.564;2024-01-06T01:36:18;97578.38;;;20.62;57.97
84795;BME280;75026;49.184;16.564;2024-01-06T01:39:19;97578.06;;;20.60;58.00
84795;BME280;75026;49.184;16.564;2024-01-06T01:42:19;97578.53;;;20.58;58.18
84795;BME280;75026;49.184;16.564;2024-01-06T01:45:20;97574.50;;;20.59;58.01
84795;BME280;75026;49.184;16.564;2024-01-06T01:48:22;97574.50;;;20.59;58.10
84795;BME280;75026;49.184;16.564;2024-01-06T01:51:26;97583.34;;;20.57;58.06
84795;BME280;75026;49.184;16.564;2024-01-06T01:54:27;97588.16;;;20.57;58.22
84795;BME280;75026;49.184;16.564;2024-01-06T01:57:28;97586.13;;;20.57;58.07
84795;BME280;75026;49.184;16.564;2024-01-06T02:00:29;97588.94;;;20.57;58.18
84795;BME280;75026;49.184;16.564;2024-01-06T02:03:30;97589.91;;;20.54;58.23
84795;BME280;75026;49.184;16.564;2024-01-06T02:06:31;97586.00;;;20.52;58.24
84795;BME280;75026;49.184;16.564;2024-01-06T02:09:31;97587.88;;;20.55;58.31
84795;BME280;75026;49.184;16.564;2024-01-06T02:12:32;97591.44;;;20.55;58.21
84795;BME280;75026;49.184;16.564;2024-01-06T02:15:33;97592.38;;;20.52;58.12
84795;BME280;75026;49.184;16.564;2024-01-06T02:18:34;97586.50;;;20.50;58.48
84795;BME280;75026;49.184;16.564;2024-01-06T02:21:39;97590.34;;;20.53;58.06
84795;BME280;75026;49.184;16.564;2024-01-06T02:24:41;97590.06;;;20.51;58.42
84795;BME280;75026;49.184;16.564;2024-01-06T02:27:42;97600.47;;;20.50;58.21
84795;BME280;75026;49.184;16.564;2024-01-06T02:30:43;97602.78;;;20.52;58.34
84795;BME280;75026;49.184;16.564;2024-01-06T02:33:44;97599.34;;;20.48;58.42
84795;BME280;75026;49.184;16.564;2024-01-06T02:36:44;97596.56;;;20.48;58.50
84795;BME280;75026;49.184;16.564;2024-01-06T02:39:45;97585.38;;;20.48;58.40
84795;BME280;75026;49.184;16.564;2024-01-06T02:42:46;97593.63;;;20.51;58.41
84795;BME280;75026;49.184;16.564;2024-01-06T02:45:46;97588.50;;;20.50;58.53
84795;BME280;75026;49.184;16.564;2024-01-06T02:48:47;97585.06;;;20.46;58.56
84795;BME280;75026;49.184;16.564;2024-01-06T02:51:48;97581.50;;;20.45;58.53
84795;BME280;75026;49.184;16.564;2024-01-06T02:54:48;97581.66;;;20.42;58.69
84795;BME280;75026;49.184;16.564;2024-01-06T02:57:49;97576.69;;;20.46;58.48
84795;BME280;75026;49.184;16.564;2024-01-06T03:00:50;97587.09;;;20.45;58.58
84795;BME280;75026;49.184;16.564;2024-01-06T03:03:50;97582.25;;;20.46;58.53
84795;BME280;75026;49.184;16.564;2024-01-06T03:06:51;97579.78;;;20.48;58.48
84795;BME280;75026;49.184;16.564;2024-01-06T03:09:54;97572.06;;;20.43;58.79
84795;BME280;75026;49.184;16.564;2024-01-06T03:12:54;97574.06;;;20.42;58.59
84795;BME280;75026;49.184;16.564;2024-01-06T03:15:55;97558.69;;;20.47;58.62
84795;BME280;75026;49.184;16.564;2024-01-06T03:18:56;97570.81;;;20.44;58.76
84795;BME280;75026;49.184;16.564;2024-01-06T03:21:56;97562.09;;;20.42;58.52
84795;BME280;75026;49.184;16.564;2024-01-06T03:24:57;97555.28;;;20.43;58.64
84795;BME280;75026;49.184;16.564;2024-01-06T03:27:58;97562.69;;;20.46;58.58
84795;BME280;75026;49.184;16.564;2024-01-06T03:30:58;97553.72;;;20.42;58.69
84795;BME280;75026;49.184;16.564;2024-01-06T03:33:59;97541.31;;;20.43;58.61
84795;BME280;75026;49.184;16.564;2024-01-06T03:37:00;97527.00;;;20.41;58.64
84795;BME280;75026;49.184;16.564;2024-01-06T03:40:01;97538.50;;;20.43;58.74
84795;BME280;75026;49.184;16.564;2024-01-06T03:43:01;97541.31;;;20.43;58.73
84795;BME280;75026;49.184;16.564;2024-01-06T03:46:03;97528.44;;;20.36;58.80
84795;BME280;75026;49.184;16.564;2024-01-06T03:49:03;97542.25;;;20.40;58.76
84795;BME280;75026;49.184;16.564;2024-01-06T03:52:04;97534.63;;;20.40;58.82
84795;BME280;75026;49.184;16.564;2024-01-06T03:55:05;97534.47;;;20.44;58.75
84795;BME280;75026;49.184;16.564;2024-01-06T03:58:06;97541.00;;;20.41;58.78
84795;BME280;75026;49.184;16.564;2024-01-06T04:01:07;97534.63;;;20.40;58.73
84795;BME280;75026;49.184;16.564;2024-01-06T04:04:08;97539.75;;;20.42;58.65
84795;BME280;75026;49.184;16.564;2024-01-06T04:07:09;97541.94;;;20.38;58.76
84795;BME280;75026;49.184;16.564;2024-01-06T04:10:09;97545.81;;;20.40;58.73
84795;BME280;75026;49.184;16.564;2024-01-06T04:13:11;97523.63;;;20.37;58.81
84795;BME280;75026;49.184;16.564;2024-01-06T04:16:12;97523.44;;;20.40;58.66
84795;BME280;75026;49.184;16.564;2024-01-06T04:19:12;97528.28;;;20.40;58.86
84795;BME280;75026;49.184;16.564;2024-01-06T04:22:14;97525.63;;;20.36;58.92
84795;BME280;75026;49.184;16.564;2024-01-06T04:25:14;97519.56;;;20.38;59.14
84795;BME280;75026;49.184;16.564;2024-01-06T04:28:15;97513.69;;;20.36;59.11
84795;BME280;75026;49.184;16.564;2024-01-06T04:31:16;97526.41;;;20.37;59.04
84795;BME280;75026;49.184;16.564;2024-01-06T04:34:16;97523.91;;;20.39;58.91
84795;BME280;75026;49.184;16.564;2024-01-06T04:37:18;97520.16;;;20.42;58.95
84795;BME280;75026;49.184;16.564;2024-01-06T04:40:18;97514.28;;;20.40;58.92
84795;BME280;75026;49.184;16.564;2024-01-06T04:43:19;97517.72;;;20.34;59.03
84795;BME280;75026;49.184;16.564;2024-01-06T04:46:20;97516.78;;;20.38;58.97
84795;BME280;75026;49.184;16.564;2024-01-06T04:49:20;97514.47;;;20.36;59.06
84795;BME280;75026;49.184;16.564;2024-01-06T04:52:21;97518.97;;;20.33;58.98
84795;BME280;75026;49.184;16.564;2024-01-06T04:55:22;97518.03;;;20.37;59.12
84795;BME280;75026;49.184;16.564;2024-01-06T04:58:23;97516.50;;;20.36;58.99
84795;BME280;75026;49.184;16.564;2024-01-06T05:01:23;97514.47;;;20.36;59.10
84795;BME280;75026;49.184;16.564;2024-01-06T05:04:25;97511.94;;;20.38;58.91
84795;BME280;75026;49.184;16.564;2024-01-06T05:07:25;97507.31;;;20.35;59.09
84795;BME280;75026;49.184;16.564;2024-01-06T05:10:26;97515.69;;;20.35;59.03
84795;BME280;75026;49.184;16.564;2024-01-06T05:13:26;97518.47;;;20.44;58.89
84795;BME280;75026;49.184;16.564;2024-01-06T05:16:27;97519.41;;;20.41;58.68
84795;BME280;75026;49.184;16.564;2024-01-06T05:19:28;97528.72;;;20.38;58.77
84795;BME280;75026;49.184;16.564;2024-01-06T05:22:29;97524.88;;;20.36;58.91
84795;BME280;75026;49.184;16.564;2024-01-06T05:25:30;97535.75;;;20.33;58.98
84795;BME280;75026;49.184;16.564;2024-01-06T05:28:31;97545.22;;;20.36;58.86
84795;BME280;75026;49.184;16.564;2024-01-06T05:31:32;97537.28;;;20.34;58.99
84795;BME280;75026;49.184;16.564;2024-01-06T05:34:32;97538.84;;;20.36;58.84
84795;BME280;75026;49.184;16.564;2024-01-06T05:37:33;97538.03;;;20.35;58.88
84795;BME280;75026;49.184;16.564;2024-01-06T05:40:34;97551.72;;;20.33;58.99
84795;BME280;75026;49.184;16.564;2024-01-06T05:43:34;97545.81;;;20.31;59.11
84795;BME280;75026;49.184;16.564;2024-01-06T05:46:35;97547.22;;;20.36;58.89
84795;BME280;75026;49.184;16.564;2024-01-06T05:49:36;97549.72;;;20.33;58.93
84795;BME280;75026;49.184;16.564;2024-01-06T05:52:37;97545.38;;;20.32;58.89
84795;BME280;75026;49.184;16.564;2024-01-06T05:55:37;97551.91;;;20.29;59.12
84795;BME280;75026;49.184;16.564;2024-01-06T05:58:39;97553.00;;;20.32;58.99
84795;BME280;75026;49.184;16.564;2024-01-06T06:01:40;97554.81;;;20.35;58.96
84795;BME280;75026;49.184;16.564;2024-01-06T06:04:40;97552.50;;;20.33;58.85
84795;BME280;75026;49.184;16.564;2024-01-06T06:07:41;97556.22;;;20.30;59.01
84795;BME280;75026;49.184;16.564;2024-01-06T06:10:43;97561.38;;;20.32;58.90
84795;BME280;75026;49.184;16.564;2024-01-06T06:14:01;97560.59;;;20.31;59.05
84795;BME280;75026;49.184;16.564;2024-01-06T06:17:03;97555.47;;;20.30;59.13
84795;BME280;75026;49.184;16.564;2024-01-06T06:20:05;97563.69;;;20.33;58.96
84795;BME280;75026;49.184;16.564;2024-01-06T06:23:06;97559.63;;;20.34;58.82
84795;BME280;75026;49.184;16.564;2024-01-06T06:26:08;97570.03;;;20.34;58.88
84795;BME280;75026;49.184;16.564;2024-01-06T06:29:09;97566.47;;;20.33;58.81
84795;BME280;75026;49.184;16.564;2024-01-06T06:32:09;97577.00;;;20.39;58.70
84795;BME280;75026;49.184;16.564;2024-01-06T06:35:10;97577.97;;;20.36;58.84
84795;BME280;75026;49.184;16.564;2024-01-06T06:38:11;97588.34;;;20.35;58.96
84795;BME280;75026;49.184;16.564;2024-01-06T06:41:11;97589.16;;;20.36;58.94
84795;BME280;75026;49.184;16.564;2024-01-06T06:44:12;97598.59;;;20.38;58.87
84795;BME280;75026;49.184;16.564;2024-01-06T06:47:13;97606.53;;;20.40;58.72
84795;BME280;75026;49.184;16.564;2024-01-06T06:50:14;97603.41;;;20.38;58.67
84795;BME280;75026;49.184;16.564;2024-01-06T06:53:14;97609.78;;;20.38;58.71
84795;BME280;75026;49.184;16.564;2024-01-06T06:56:15;97604.34;;;20.34;58.95
84795;BME280;75026;49.184;16.564;2024-01-06T06:59:17;97607.47;;;20.37;58.99
84795;BME280;75026;49.184;16.564;2024-01-06T07:02:18;97609.31;;;20.40;58.71
84795;BME280;75026;49.184;16.564;2024-01-06T07:05:18;97610.25;;;20.37;58.75
84795;BME280;75026;49.184;16.564;2024-01-06T07:08:19;97611.50;;;20.36;58.89
84795;BME280;75026;49.184;16.564;2024-01-06T07:11:20;97617.09;;;20.36;58.86
84795;BME280;75026;49.184;16.564;2024-01-06T07:14:21;97611.81;;;20.38;58.90
84795;BME280;75026;49.184;16.564;2024-01-06T07:17:22;97619.91;;;20.36;58.77
84795;BME280;75026;49.184;16.564;2024-01-06T07:20:22;97629.66;;;20.40;58.74
84795;BME280;75026;49.184;16.564;2024-01-06T07:23:23;97642.09;;;20.39;58.93
84795;BME280;75026;49.184;16.564;2024-01-06T07:26:24;97645.03;;;20.45;58.80
84795;BME280;75026;49.184;16.564;2024-01-06T07:29:24;97651.53;;;20.42;58.87
84795;BME280;75026;49.184;16.564;2024-01-06T07:32:25;97641.63;;;20.41;58.82
84795;BME280;75026;49.184;16.564;2024-01-06T07:35:26;97643.81;;;20.37;58.67
84795;BME280;75026;49.184;16.564;2024-01-06T07:38:27;97650.00;;;20.41;58.86
84795;BME280;75026;49.184;16.564;2024-01-06T07:41:28;97655.28;;;20.39;58.81
84795;BME280;75026;49.184;16.564;2024-01-06T07:44:31;97656.06;;;20.39;58.93
84795;BME280;75026;49.184;16.564;2024-01-06T07:47:32;97657.78;;;20.37;58.91
84795;BME280;75026;49.184;16.564;2024-01-06T07:50:32;97659.78;;;20.36;58.83
84795;BME280;75026;49.184;16.564;2024-01-06T07:53:33;97656.22;;;20.36;58.94
84795;BME280;75026;49.184;16.564;2024-01-06T07:56:34;97658.53;;;20.37;58.95
84795;BME280;75026;49.184;16.564;2024-01-06T07:59:35;97664.63;;;20.36;59.00
84795;BME280;75026;49.184;16.564;2024-01-06T08:02:36;97660.25;;;20.34;59.02
84795;BME280;75026;49.184;16.564;2024-01-06T08:05:36;97666.16;;;20.37;58.80
84795;BME280;75026;49.184;16.564;2024-01-06T08:08:38;97666.44;;;20.39;58.89
84795;BME280;75026;49.184;16.564;2024-01-06T08:11:38;97668.94;;;20.37;58.86
84795;BME280;75026;49.184;16.564;2024-01-06T08:14:39;97671.75;;;20.37;59.07
84795;BME280;75026;49.184;16.564;2024-01-06T08:17:40;97670.66;;;20.34;58.93
84795;BME280;75026;49.184;16.564;2024-01-06T08:20:44;97676.25;;;20.34;58.99
84795;BME280;75026;49.184;16.564;2024-01-06T08:23:44;97668.94;;;20.37;58.86
84795;BME280;75026;49.184;16.564;2024-01-06T08:26:48;97674.84;;;20.39;58.86
84795;BME280;75026;49.184;16.564;2024-01-06T08:29:50;97682.94;;;20.37;58.97
84795;BME280;75026;49.184;16.564;2024-01-06T08:32:51;97677.78;;;20.35;58.93
84795;BME280;75026;49.184;16.564;2024-01-06T08:35:52;97680.13;;;20.37;58.90
84795;BME280;75026;49.184;16.564;2024-01-06T08:38:54;97681.06;;;20.33;59.12
84795;BME280;75026;49.184;16.564;2024-01-06T08:41:55;97681.69;;;20.38;58.97
84795;BME280;75026;49.184;16.564;2024-01-06T08:44:55;97680.13;;;20.37;59.12
84795;BME280;75026;49.184;16.564;2024-01-06T08:47:56;97686.81;;;20.39;58.88
84795;BME280;75026;49.184;16.564;2024-01-06T08:50:57;97685.72;;;20.37;59.08
84795;BME280;75026;49.184;16.564;2024-01-06T08:53:58;97687.91;;;20.32;58.99
84795;BME280;75026;49.184;16.564;2024-01-06T08:56:58;97691.75;;;20.35;59.08
84795;BME280;75026;49.184;16.564;2024-01-06T08:59:59;97692.25;;;20.33;59.04
84795;BME280;75026;49.184;16.564;2024-01-06T09:03:00;97697.34;;;20.35;58.94
84795;BME280;75026;49.184;16.564;2024-01-06T09:06:00;97695.81;;;20.34;59.08
84795;BME280;75026;49.184;16.564;2024-01-06T09:09:01;97696.91;;;20.37;58.86
84795;BME280;75026;49.184;16.564;2024-01-06T09:12:02;97695.81;;;20.34;59.05
84795;BME280;75026;49.184;16.564;2024-01-06T09:15:03;97701.72;;;20.36;58.95
84795;BME280;75026;49.184;16.564;2024-01-06T09:18:04;97695.34;;;20.36;59.03
84795;BME280;75026;49.184;16.564;2024-01-06T09:21:05;97693.34;;;20.36;59.02
84795;BME280;75026;49.184;16.564;2024-01-06T09:24:06;97689.78;;;20.36;59.12
84795;BME280;75026;49.184;16.564;2024-01-06T09:27:06;97691.00;;;20.34;59.14
84795;BME280;75026;49.184;16.564;2024-01-06T09:30:08;97691.00;;;20.34;59.29
84795;BME280;75026;49.184;16.564;2024-01-06T09:33:09;97688.03;;;20.38;59.19
84795;BME280;75026;49.184;16.564;2024-01-06T09:36:09;97682.59;;;20.34;59.28
84795;BME280;75026;49.184;16.564;2024-01-06T09:39:12;97686.66;;;20.33;59.48
84795;BME280;75026;49.184;16.564;2024-01-06T09:42:13;97695.06;;;20.24;58.29
84795;BME280;75026;49.184;16.564;2024-01-06T09:45:20;97686.34;;;20.04;58.57
84795;BME280;75026;49.184;16.564;2024-01-06T09:48:22;97690.38;;;20.30;58.41
84795;BME280;75026;49.184;16.564;2024-01-06T09:51:29;97689.13;;;20.50;58.09
84795;BME280;75026;49.184;16.564;2024-01-06T09:54:30;97691.59;;;20.48;58.30
84795;BME280;75026;49.184;16.564;2024-01-06T09:57:34;97685.13;;;20.51;58.27
84795;BME280;75026;49.184;16.564;2024-01-06T10:00:35;97683.53;;;20.50;58.42
84795;BME280;75026;49.184;16.564;2024-01-06T10:03:37;97690.69;;;20.51;58.50
84795;BME280;75026;49.184;16.564;2024-01-06T10:10:18;97684.63;;;20.62;58.50
84795;BME280;75026;49.184;16.564;2024-01-06T10:13:20;97685.41;;;20.62;58.54
84795;BME280;75026;49.184;16.564;2024-01-06T10:16:21;97693.63;;;20.66;58.40
84795;BME280;75026;49.184;16.564;2024-01-06T10:19:23;97686.00;;;20.66;58.41
84795;BME280;75026;49.184;16.564;2024-01-06T10:22:24;97679.63;;;20.66;58.28
84795;BME280;75026;49.184;16.564;2024-01-06T10:25:25;97681.78;;;20.71;58.24
84795;BME280;75026;49.184;16.564;2024-01-06T10:28:25;97674.19;;;20.71;58.28
84795;BME280;75026;49.184;16.564;2024-01-06T10:31:27;97681.78;;;20.71;58.28
84795;BME280;75026;49.184;16.564;2024-01-06T10:34:28;97681.16;;;20.76;58.23
84795;BME280;75026;49.184;16.564;2024-01-06T10:37:30;97670.75;;;20.76;58.31
84795;BME280;75026;49.184;16.564;2024-01-06T10:40:30;97672.31;;;20.77;58.34
84795;BME280;75026;49.184;16.564;2024-01-06T10:43:32;97678.50;;;20.81;57.97
84795;BME280;75026;49.184;16.564;2024-01-06T10:46:38;97667.00;;;20.79;57.90
84795;BME280;75026;49.184;16.564;2024-01-06T10:49:39;97664.84;;;20.74;58.08
84795;BME280;75026;49.184;16.564;2024-01-06T10:52:40;97660.78;;;20.75;57.93
84795;BME280;75026;49.184;16.564;2024-01-06T10:55:42;97656.78;;;20.76;57.74
84795;BME280;75026;49.184;16.564;2024-01-06T10:58:47;97654.59;;;20.80;57.68
84795;BME280;75026;49.184;16.564;2024-01-06T11:01:51;97656.22;;;20.96;57.65
84795;BME280;75026;49.184;16.564;2024-01-06T11:04:53;97652.69;;;20.87;58.02
84795;BME280;75026;49.184;16.564;2024-01-06T11:07:55;97641.50;;;20.87;57.97
84795;BME280;75026;49.184;16.564;2024-01-06T11:11:01;97641.50;;;20.87;58.18
84795;BME280;75026;49.184;16.564;2024-01-06T11:14:18;97647.13;;;20.77;58.40
84795;BME280;75026;49.184;16.564;2024-01-06T11:17:49;97634.69;;;20.78;58.34
84795;BME280;75026;49.184;16.564;2024-01-06T11:21:22;97626.31;;;20.78;58.51
84795;BME280;75026;49.184;16.564;2024-01-06T11:24:26;97624.53;;;20.90;58.43
84795;BME280;75026;49.184;16.564;2024-01-06T11:27:28;97625.31;;;20.91;58.39
84795;BME280;75026;49.184;16.564;2024-01-06T11:30:29;97622.06;;;20.92;58.30
84795;BME280;75026;49.184;16.564;2024-01-06T11:33:30;97621.75;;;20.90;58.36
84795;BME280;75026;49.184;16.564;2024-01-06T11:36:31;97614.59;;;20.89;58.26
84795;BME280;75026;49.184;16.564;2024-01-06T11:39:36;97614.25;;;20.96;58.20
84795;BME280;75026;49.184;16.564;2024-01-06T11:42:44;97623.75;;;20.99;58.44
84795;BME280;75026;49.184;16.564;2024-01-06T11:45:45;97618.16;;;20.99;58.19
84795;BME280;75026;49.184;16.564;2024-01-06T11:48:45;97618.16;;;20.99;58.10
84795;BME280;75026;49.184;16.564;2024-01-06T11:51:51;97619.09;;;20.96;58.25
84795;BME280;75026;49.184;16.564;2024-01-06T11:57:55;97625.88;;;21.04;58.10
84795;BME280;75026;49.184;16.564;2024-01-06T12:00:56;97617.16;;;21.02;57.97
84795;BME280;75026;49.184;16.564;2024-01-06T12:04:00;97619.97;;;21.02;58.16
84795;BME280;75026;49.184;16.564;2024-01-06T12:07:09;97608.31;;;21.03;58.15
84795;BME280;75026;49.184;16.564;2024-01-06T12:10:13;97612.03;;;20.76;57.75
84795;BME280;75026;49.184;16.564;2024-01-06T12:13:21;97604.59;;;20.64;57.57
84795;BME280;75026;49.184;16.564;2024-01-06T12:16:22;97613.84;;;20.79;57.05
84795;BME280;75026;49.184;16.564;2024-01-06T12:19:27;97611.06;;;20.79;57.38
84795;BME280;75026;49.184;16.564;2024-01-06T12:22:28;97609.00;;;20.89;57.42
84795;BME280;75026;49.184;16.564;2024-01-06T12:25:28;97609.19;;;20.86;57.43
84795;BME280;75026;49.184;16.564;2024-01-06T12:28:48;97607.31;;;20.82;57.73
84795;BME280;75026;49.184;16.564;2024-01-06T12:40:24;97613.91;;;20.70;57.73
84795;BME280;75026;49.184;16.564;2024-01-06T12:48:19;97619.34;;;20.65;57.79
84795;BME280;75026;49.184;16.564;2024-01-06T12:56:38;97624.06;;;20.58;57.94
84795;BME280;75026;49.184;16.564;2024-01-06T13:00:24;97629.16;;;20.60;58.05
84795;BME280;75026;49.184;16.564;2024-01-06T13:03:50;97626.69;;;20.53;58.11
84795;BME280;75026;49.184;16.564;2024-01-06T13:07:17;97628.56;;;20.56;58.01
84795;BME280;75026;49.184;16.564;2024-01-06T13:15:18;97622.97;;;20.47;58.02
84795;BME280;75026;49.184;16.564;2024-01-06T13:19:25;97628.88;;;20.40;58.26
84795;BME280;75026;49.184;16.564;2024-01-06T13:23:24;97634.94;;;20.38;58.22
84795;BME280;75026;49.184;16.564;2024-01-06T13:27:37;97629.22;;;20.32;58.40
84795;BME280;75026;49.184;16.564;2024-01-06T13:31:29;97635.69;;;20.48;58.11
84795;BME280;75026;49.184;16.564;2024-01-06T13:34:39;97643.75;;;20.46;58.46
84795;BME280;75026;49.184;16.564;2024-01-06T13:37:40;97647.19;;;20.50;58.66
84795;BME280;75026;49.184;16.564;2024-01-06T13:40:43;97637.88;;;20.62;58.61
84795;BME280;75026;49.184;16.564;2024-01-06T13:43:43;97640.50;;;20.66;58.52
84795;BME280;75026;49.184;16.564;2024-01-06T13:46:44;97639.53;;;20.69;58.54
84795;BME280;75026;49.184;16.564;2024-01-06T13:49:47;97644.06;;;20.66;58.59
84795;BME280;75026;49.184;16.564;2024-01-06T13:52:48;97647.53;;;20.43;59.07
84795;BME280;75026;49.184;16.564;2024-01-06T13:55:50;97646.69;;;20.70;58.57
84795;BME280;75026;49.184;16.564;2024-01-06T13:58:50;97649.59;;;20.75;58.42
84795;BME280;75026;49.184;16.564;2024-01-06T14:01:51;97645.41;;;20.80;58.34
84795;BME280;75026;49.184;16.564;2024-01-06T14:05:02;97646.53;;;20.73;58.18
84795;BME280;75026;49.184;16.564;2024-01-06T14:08:18;97647.91;;;20.78;57.87
84795;BME280;75026;49.184;16.564;2024-01-06T14:15:34;97656.56;;;20.89;57.97
84795;BME280;75026;49.184;16.564;2024-01-06T14:23:25;97664.97;;;20.80;58.11
84795;BME280;75026;49.184;16.564;2024-01-06T14:26:40;97668.06;;;20.91;57.60
84795;BME280;75026;49.184;16.564;2024-01-06T14:29:42;97659.34;;;20.89;57.91
84795;BME280;75026;49.184;16.564;2024-01-06T14:32:43;97664.00;;;20.92;57.75
84795;BME280;75026;49.184;16.564;2024-01-06T14:35:44;97664.78;;;20.93;57.86
84795;BME280;75026;49.184;16.564;2024-01-06T14:38:46;97666.31;;;20.94;57.97
84795;BME280;75026;49.184;16.564;2024-01-06T14:41:47;97668.66;;;20.95;57.88
84795;BME280;75026;49.184;16.564;2024-01-06T14:44:48;97667.69;;;20.98;57.91
84795;BME280;75026;49.184;16.564;2024-01-06T14:47:49;97665.38;;;20.97;57.88
84795;BME280;75026;49.184;16.564;2024-01-06T14:50:51;97672.53;;;20.98;57.86
84795;BME280;75026;49.184;16.564;2024-01-06T14:53:52;97663.53;;;20.94;58.17
84795;BME280;75026;49.184;16.564;2024-01-06T14:56:53;97676.25;;;20.95;58.23
84795;BME280;75026;49.184;16.564;2024-01-06T14:59:54;97670.50;;;20.98;58.03
84795;BME280;75026;49.184;16.564;2024-01-06T15:02:54;97677.19;;;21.01;58.05
84795;BME280;75026;49.184;16.564;2024-01-06T15:05:55;97670.91;;;21.15;57.83
84795;BME280;75026;49.184;16.564;2024-01-06T15:08:56;97674.06;;;21.32;57.15
84795;BME280;75026;49.184;16.564;2024-01-06T15:11:57;97678.13;;;21.40;56.75
84795;BME280;75026;49.184;16.564;2024-01-06T15:14:57;97675.19;;;21.35;56.78
84795;BME280;75026;49.184;16.564;2024-01-06T15:18:01;97677.63;;;21.42;56.62
84795;BME280;75026;49.184;16.564;2024-01-06T15:21:02;97672.81;;;21.42;56.76
84795;BME280;75026;49.184;16.564;2024-01-06T15:24:03;97681.38;;;21.39;56.69
84795;BME280;75026;49.184;16.564;2024-01-06T15:27:04;97678.56;;;21.39;56.91
84795;BME280;75026;49.184;16.564;2024-01-06T15:30:06;97682.47;;;21.41;56.81
84795;BME280;75026;49.184;16.564;2024-01-06T15:33:16;97681.97;;;21.43;56.72
84795;BME280;75026;49.184;16.564;2024-01-06T15:36:16;97678.88;;;21.41;56.40
84795;BME280;75026;49.184;16.564;2024-01-06T15:39:18;97682.28;;;21.45;56.50
84795;BME280;75026;49.184;16.564;2024-01-06T15:42:19;97681.38;;;21.39;56.72
84795;BME280;75026;49.184;16.564;2024-01-06T15:45:19;97673.16;;;21.35;56.89
84795;BME280;75026;49.184;16.564;2024-01-06T15:48:20;97677.53;;;21.36;56.82
84795;BME280;75026;49.184;16.564;2024-01-06T15:51:21;97680.13;;;21.40;56.74
84795;BME280;75026;49.184;16.564;2024-01-06T15:54:23;97676.88;;;21.41;56.71
84795;BME280;75026;49.184;16.564;2024-01-06T15:57:24;97680.13;;;21.40;56.82
84795;BME280;75026;49.184;16.564;2024-01-06T16:00:27;97683.22;;;21.42;56.85
84795;BME280;75026;49.184;16.564;2024-01-06T16:03:28;97674.66;;;21.45;56.78
84795;BME280;75026;49.184;16.564;2024-01-06T16:06:29;97682.13;;;21.48;56.71
84795;BME280;75026;49.184;16.564;2024-01-06T16:09:31;97682.72;;;21.52;56.44
84795;BME280;75026;49.184;16.564;2024-01-06T16:12:32;97680.56;;;21.47;56.65
84795;BME280;75026;49.184;16.564;2024-01-06T16:15:33;97683.22;;;21.42;56.79
84795;BME280;75026;49.184;16.564;2024-01-06T16:18:34;97676.25;;;21.37;57.10
84795;BME280;75026;49.184;16.564;2024-01-06T16:21:34;97678.72;;;21.44;56.96
84795;BME280;75026;49.184;16.564;2024-01-06T16:24:36;97671.25;;;21.41;56.93
84795;BME280;75026;49.184;16.564;2024-01-06T16:27:37;97669.66;;;21.49;56.70
84795;BME280;75026;49.184;16.564;2024-01-06T16:30:39;97673.22;;;21.50;56.74
84795;BME280;75026;49.184;16.564;2024-01-06T16:33:39;97671.59;;;21.58;56.40
84795;BME280;75026;49.184;16.564;2024-01-06T16:36:40;97675.66;;;21.57;56.53